sensor_id;sensor_type;location;lat;lon;timestamp;temperature;humidity
26164;DHT22;13914;48.178;11.716;2023-05-07T00:02:06;13.70;37.10
26164;DHT22;13914;48.178;11.716;2023-05-07T00:04:32;13.60;37.20
26164;DHT22;13914;48.178;11.716;2023-05-07T00:07:02;13.60;37.20
26164;DHT22;13914;48.178;11.716;2023-05-07T00:09:28;13.50;36.90
26164;DHT22;13914;48.178;11.716;2023-05-07T00:11:53;13.50;37.20
26164;DHT22;13914;48.178;11.716;2023-05-07T00:14:19;13.60;37.10
26164;DHT22;13914;48.178;11.716;2023-05-07T00:16:46;13.50;37.10
26164;DHT22;13914;48.178;11.716;2023-05-07T00:19:12;13.40;36.90
26164;DHT22;13914;48.178;11.716;2023-05-07T00:21:37;13.40;36.90
26164;DHT22;13914;48.178;11.716;2023-05-07T00:24:03;13.40;36.60
26164;DHT22;13914;48.178;11.716;2023-05-07T00:26:29;13.40;36.90
26164;DHT22;13914;48.178;11.716;2023-05-07T00:28:55;13.30;36.80
26164;DHT22;13914;48.178;11.716;2023-05-07T00:31:21;13.30;37.10
26164;DHT22;13914;48.178;11.716;2023-05-07T00:33:46;13.30;37.30
26164;DHT22;13914;48.178;11.716;2023-05-07T00:36:12;13.30;37.30
26164;DHT22;13914;48.178;11.716;2023-05-07T00:38:37;13.30;37.50
26164;DHT22;13914;48.178;11.716;2023-05-07T00:41:03;13.30;37.10
26164;DHT22;13914;48.178;11.716;2023-05-07T00:43:29;13.20;37.20
26164;DHT22;13914;48.178;11.716;2023-05-07T00:45:55;13.20;36.50
26164;DHT22;13914;48.178;11.716;2023-05-07T00:48:20;13.20;37.10
26164;DHT22;13914;48.178;11.716;2023-05-07T00:50:46;13.20;36.90
26164;DHT22;13914;48.178;11.716;2023-05-07T00:53:13;13.20;37.40
26164;DHT22;13914;48.178;11.716;2023-05-07T00:55:39;13.10;37.10
26164;DHT22;13914;48.178;11.716;2023-05-07T00:58:05;13.10;37.30
26164;DHT22;13914;48.178;11.716;2023-05-07T01:00:31;13.10;37.40
26164;DHT22;13914;48.178;11.716;2023-05-07T01:02:57;13.10;37.30
26164;DHT22;13914;48.178;11.716;2023-05-07T01:05:23;13.00;37.30
26164;DHT22;13914;48.178;11.716;2023-05-07T01:07:50;13.00;37.50
26164;DHT22;13914;48.178;11.716;2023-05-07T01:10:17;13.00;37.40
26164;DHT22;13914;48.178;11.716;2023-05-07T01:12:43;13.00;37.50
26164;DHT22;13914;48.178;11.716;2023-05-07T01:15:10;12.90;37.40
26164;DHT22;13914;48.178;11.716;2023-05-07T01:17:36;12.90;37.30
26164;DHT22;13914;48.178;11.716;2023-05-07T01:20:03;12.90;37.10
26164;DHT22;13914;48.178;11.716;2023-05-07T01:22:33;12.90;37.50
26164;DHT22;13914;48.178;11.716;2023-05-07T01:25:00;12.90;37.60
26164;DHT22;13914;48.178;11.716;2023-05-07T01:27:27;12.90;37.50
26164;DHT22;13914;48.178;11.716;2023-05-07T01:29:53;12.80;37.40
26164;DHT22;13914;48.178;11.716;2023-05-07T01:32:19;12.80;37.60
26164;DHT22;13914;48.178;11.716;2023-05-07T01:34:48;12.70;37.40
26164;DHT22;13914;48.178;11.716;2023-05-07T01:37:15;12.80;37.30
26164;DHT22;13914;48.178;11.716;2023-05-07T01:39:41;12.70;37.10
26164;DHT22;13914;48.178;11.716;2023-05-07T01:42:07;12.70;37.60
26164;DHT22;13914;48.178;11.716;2023-05-07T01:44:33;12.80;37.30
26164;DHT22;13914;48.178;11.716;2023-05-07T01:46:59;12.60;37.60
26164;DHT22;13914;48.178;11.716;2023-05-07T01:49:25;12.60;37.30
26164;DHT22;13914;48.178;11.716;2023-05-07T01:51:51;12.60;37.80
26164;DHT22;13914;48.178;11.716;2023-05-07T01:54:17;12.60;37.40
26164;DHT22;13914;48.178;11.716;2023-05-07T01:56:42;12.60;37.60
26164;DHT22;13914;48.178;11.716;2023-05-07T01:59:08;12.60;37.70
26164;DHT22;13914;48.178;11.716;2023-05-07T02:01:34;12.60;37.60
26164;DHT22;13914;48.178;11.716;2023-05-07T02:04:00;12.60;37.50
26164;DHT22;13914;48.178;11.716;2023-05-07T02:06:25;12.50;37.80
26164;DHT22;13914;48.178;11.716;2023-05-07T02:08:51;12.50;37.40
26164;DHT22;13914;48.178;11.716;2023-05-07T02:11:17;12.50;37.50
26164;DHT22;13914;48.178;11.716;2023-05-07T02:13:42;12.50;37.50
26164;DHT22;13914;48.178;11.716;2023-05-07T02:16:08;12.50;37.80
26164;DHT22;13914;48.178;11.716;2023-05-07T02:18:34;12.50;37.60
26164;DHT22;13914;48.178;11.716;2023-05-07T02:21:00;12.40;37.20
26164;DHT22;13914;48.178;11.716;2023-05-07T02:23:26;12.40;37.40
26164;DHT22;13914;48.178;11.716;2023-05-07T02:25:52;12.40;37.70
26164;DHT22;13914;48.178;11.716;2023-05-07T02:28:18;12.40;37.80
26164;DHT22;13914;48.178;11.716;2023-05-07T02:30:43;12.30;37.50
26164;DHT22;13914;48.178;11.716;2023-05-07T02:33:09;12.30;37.80
26164;DHT22;13914;48.178;11.716;2023-05-07T02:35:37;12.40;37.70
26164;DHT22;13914;48.178;11.716;2023-05-07T02:38:03;12.30;37.80
26164;DHT22;13914;48.178;11.716;2023-05-07T02:40:29;12.40;38.70
26164;DHT22;13914;48.178;11.716;2023-05-07T02:42:59;12.30;37.90
26164;DHT22;13914;48.178;11.716;2023-05-07T02:45:25;12.30;37.60
26164;DHT22;13914;48.178;11.716;2023-05-07T02:47:50;12.30;37.40
26164;DHT22;13914;48.178;11.716;2023-05-07T02:50:16;12.30;37.80
26164;DHT22;13914;48.178;11.716;2023-05-07T02:52:42;12.20;37.70
26164;DHT22;13914;48.178;11.716;2023-05-07T02:55:08;12.20;37.70
26164;DHT22;13914;48.178;11.716;2023-05-07T02:57:33;12.20;37.50
26164;DHT22;13914;48.178;11.716;2023-05-07T02:59:59;12.20;37.60
26164;DHT22;13914;48.178;11.716;2023-05-07T03:02:36;12.20;37.70
26164;DHT22;13914;48.178;11.716;2023-05-07T03:05:01;12.20;37.90
26164;DHT22;13914;48.178;11.716;2023-05-07T03:07:27;12.10;37.90
26164;DHT22;13914;48.178;11.716;2023-05-07T03:09:53;12.10;37.50
26164;DHT22;13914;48.178;11.716;2023-05-07T03:12:18;12.10;37.70
26164;DHT22;13914;48.178;11.716;2023-05-07T03:14:44;12.10;37.30
26164;DHT22;13914;48.178;11.716;2023-05-07T03:17:10;12.10;37.60
26164;DHT22;13914;48.178;11.716;2023-05-07T03:19:36;12.00;37.70
26164;DHT22;13914;48.178;11.716;2023-05-07T03:22:01;12.10;38.10
26164;DHT22;13914;48.178;11.716;2023-05-07T03:24:27;12.00;37.90
26164;DHT22;13914;48.178;11.716;2023-05-07T03:26:53;12.10;37.50
26164;DHT22;13914;48.178;11.716;2023-05-07T03:29:18;12.00;38.00
26164;DHT22;13914;48.178;11.716;2023-05-07T03:31:45;12.00;37.80
26164;DHT22;13914;48.178;11.716;2023-05-07T03:34:10;12.10;38.10
26164;DHT22;13914;48.178;11.716;2023-05-07T03:36:36;12.00;38.20
26164;DHT22;13914;48.178;11.716;2023-05-07T03:39:02;12.00;37.90
26164;DHT22;13914;48.178;11.716;2023-05-07T03:41:27;11.90;37.60
26164;DHT22;13914;48.178;11.716;2023-05-07T03:43:54;11.90;38.20
26164;DHT22;13914;48.178;11.716;2023-05-07T03:46:20;11.90;37.90
26164;DHT22;13914;48.178;11.716;2023-05-07T03:48:46;11.90;37.80
26164;DHT22;13914;48.178;11.716;2023-05-07T03:51:12;11.90;38.10
26164;DHT22;13914;48.178;11.716;2023-05-07T03:53:37;11.90;38.10
26164;DHT22;13914;48.178;11.716;2023-05-07T03:56:03;11.90;37.70
26164;DHT22;13914;48.178;11.716;2023-05-07T03:58:29;11.90;38.20
26164;DHT22;13914;48.178;11.716;2023-05-07T04:00:54;11.80;38.30
26164;DHT22;13914;48.178;11.716;2023-05-07T04:03:20;11.80;38.20
26164;DHT22;13914;48.178;11.716;2023-05-07T04:05:46;11.90;38.20
26164;DHT22;13914;48.178;11.716;2023-05-07T04:08:12;11.80;38.20
26164;DHT22;13914;48.178;11.716;2023-05-07T04:10:38;11.80;38.20
26164;DHT22;13914;48.178;11.716;2023-05-07T04:13:03;11.80;38.40
26164;DHT22;13914;48.178;11.716;2023-05-07T04:15:29;11.70;37.90
26164;DHT22;13914;48.178;11.716;2023-05-07T04:17:54;11.70;38.30
26164;DHT22;13914;48.178;11.716;2023-05-07T04:20:20;11.70;38.60
26164;DHT22;13914;48.178;11.716;2023-05-07T04:22:46;11.70;37.90
26164;DHT22;13914;48.178;11.716;2023-05-07T04:25:13;11.70;38.50
26164;DHT22;13914;48.178;11.716;2023-05-07T04:27:39;11.80;38.30
26164;DHT22;13914;48.178;11.716;2023-05-07T04:30:05;11.70;38.30
26164;DHT22;13914;48.178;11.716;2023-05-07T04:32:31;11.70;38.30
26164;DHT22;13914;48.178;11.716;2023-05-07T04:34:57;11.70;38.20
26164;DHT22;13914;48.178;11.716;2023-05-07T04:37:26;11.60;38.30
26164;DHT22;13914;48.178;11.716;2023-05-07T04:39:52;11.60;39.40
26164;DHT22;13914;48.178;11.716;2023-05-07T04:42:17;11.60;39.10
26164;DHT22;13914;48.178;11.716;2023-05-07T04:44:44;11.60;38.80
26164;DHT22;13914;48.178;11.716;2023-05-07T04:47:10;11.60;38.30
26164;DHT22;13914;48.178;11.716;2023-05-07T04:49:37;11.60;38.30
26164;DHT22;13914;48.178;11.716;2023-05-07T04:52:03;11.60;38.30
26164;DHT22;13914;48.178;11.716;2023-05-07T04:54:29;11.60;38.20
26164;DHT22;13914;48.178;11.716;2023-05-07T04:56:56;11.60;38.30
26164;DHT22;13914;48.178;11.716;2023-05-07T04:59:23;11.60;38.70
26164;DHT22;13914;48.178;11.716;2023-05-07T05:01:49;11.60;39.50
26164;DHT22;13914;48.178;11.716;2023-05-07T05:04:15;11.60;39.00
26164;DHT22;13914;48.178;11.716;2023-05-07T05:06:40;11.60;38.30
26164;DHT22;13914;48.178;11.716;2023-05-07T05:09:06;11.60;38.20
26164;DHT22;13914;48.178;11.716;2023-05-07T05:11:32;11.60;38.10
26164;DHT22;13914;48.178;11.716;2023-05-07T05:13:59;11.60;39.20
26164;DHT22;13914;48.178;11.716;2023-05-07T05:16:25;11.70;37.90
26164;DHT22;13914;48.178;11.716;2023-05-07T05:18:51;11.70;37.60
26164;DHT22;13914;48.178;11.716;2023-05-07T05:21:17;11.70;37.20
26164;DHT22;13914;48.178;11.716;2023-05-07T05:23:43;11.70;37.90
26164;DHT22;13914;48.178;11.716;2023-05-07T05:26:09;11.70;37.80
26164;DHT22;13914;48.178;11.716;2023-05-07T05:28:34;11.70;38.20
26164;DHT22;13914;48.178;11.716;2023-05-07T05:31:00;11.70;38.00
26164;DHT22;13914;48.178;11.716;2023-05-07T05:33:26;11.80;38.00
26164;DHT22;13914;48.178;11.716;2023-05-07T05:35:52;11.80;38.10
26164;DHT22;13914;48.178;11.716;2023-05-07T05:38:19;11.80;38.00
26164;DHT22;13914;48.178;11.716;2023-05-07T05:40:46;11.80;38.00
26164;DHT22;13914;48.178;11.716;2023-05-07T05:43:12;11.80;38.20
26164;DHT22;13914;48.178;11.716;2023-05-07T05:45:38;11.90;38.30
26164;DHT22;13914;48.178;11.716;2023-05-07T05:48:04;11.90;38.20
26164;DHT22;13914;48.178;11.716;2023-05-07T05:50:30;11.90;38.60
26164;DHT22;13914;48.178;11.716;2023-05-07T05:52:56;11.90;38.40
26164;DHT22;13914;48.178;11.716;2023-05-07T05:55:21;11.90;38.00
26164;DHT22;13914;48.178;11.716;2023-05-07T05:57:47;11.90;37.90
26164;DHT22;13914;48.178;11.716;2023-05-07T06:00:13;12.00;37.80
26164;DHT22;13914;48.178;11.716;2023-05-07T06:02:39;12.00;38.30
26164;DHT22;13914;48.178;11.716;2023-05-07T06:05:05;12.00;38.50
26164;DHT22;13914;48.178;11.716;2023-05-07T06:07:31;12.00;38.10
26164;DHT22;13914;48.178;11.716;2023-05-07T06:09:56;12.10;38.40
26164;DHT22;13914;48.178;11.716;2023-05-07T06:12:22;12.10;38.30
26164;DHT22;13914;48.178;11.716;2023-05-07T06:14:48;12.10;38.10
26164;DHT22;13914;48.178;11.716;2023-05-07T06:17:13;12.20;38.70
26164;DHT22;13914;48.178;11.716;2023-05-07T06:19:39;12.20;38.70
26164;DHT22;13914;48.178;11.716;2023-05-07T06:22:05;12.20;38.70
26164;DHT22;13914;48.178;11.716;2023-05-07T06:24:30;12.30;39.30
26164;DHT22;13914;48.178;11.716;2023-05-07T06:26:56;12.40;39.20
26164;DHT22;13914;48.178;11.716;2023-05-07T06:29:23;12.40;39.60
26164;DHT22;13914;48.178;11.716;2023-05-07T06:31:53;12.40;39.10
26164;DHT22;13914;48.178;11.716;2023-05-07T06:34:19;12.50;40.30
26164;DHT22;13914;48.178;11.716;2023-05-07T06:36:45;12.50;40.30
26164;DHT22;13914;48.178;11.716;2023-05-07T06:39:10;12.70;40.10
26164;DHT22;13914;48.178;11.716;2023-05-07T06:41:36;12.70;40.30
26164;DHT22;13914;48.178;11.716;2023-05-07T06:44:02;12.80;40.70
26164;DHT22;13914;48.178;11.716;2023-05-07T06:46:28;12.90;40.10
26164;DHT22;13914;48.178;11.716;2023-05-07T06:48:54;13.00;40.30
26164;DHT22;13914;48.178;11.716;2023-05-07T06:51:22;13.10;40.70
26164;DHT22;13914;48.178;11.716;2023-05-07T06:53:47;13.30;41.10
26164;DHT22;13914;48.178;11.716;2023-05-07T06:56:13;13.40;41.10
26164;DHT22;13914;48.178;11.716;2023-05-07T06:58:39;13.60;40.90
26164;DHT22;13914;48.178;11.716;2023-05-07T07:01:04;13.70;41.20
26164;DHT22;13914;48.178;11.716;2023-05-07T07:03:30;13.90;41.10
26164;DHT22;13914;48.178;11.716;2023-05-07T07:05:56;14.10;41.70
26164;DHT22;13914;48.178;11.716;2023-05-07T07:08:22;14.20;41.90
26164;DHT22;13914;48.178;11.716;2023-05-07T07:10:47;14.40;41.80
26164;DHT22;13914;48.178;11.716;2023-05-07T07:13:13;14.60;41.20
26164;DHT22;13914;48.178;11.716;2023-05-07T07:15:39;14.70;41.40
26164;DHT22;13914;48.178;11.716;2023-05-07T07:18:05;14.90;41.90
26164;DHT22;13914;48.178;11.716;2023-05-07T07:20:31;15.10;42.50
26164;DHT22;13914;48.178;11.716;2023-05-07T07:22:57;15.30;42.70
26164;DHT22;13914;48.178;11.716;2023-05-07T07:25:23;15.50;43.00
26164;DHT22;13914;48.178;11.716;2023-05-07T07:27:49;15.60;42.80
26164;DHT22;13914;48.178;11.716;2023-05-07T07:30:15;15.80;42.90
26164;DHT22;13914;48.178;11.716;2023-05-07T07:32:41;16.10;42.60
26164;DHT22;13914;48.178;11.716;2023-05-07T07:35:06;16.20;42.50
26164;DHT22;13914;48.178;11.716;2023-05-07T07:37:32;16.40;42.30
26164;DHT22;13914;48.178;11.716;2023-05-07T07:39:58;16.50;42.10
26164;DHT22;13914;48.178;11.716;2023-05-07T07:42:25;16.70;42.30
26164;DHT22;13914;48.178;11.716;2023-05-07T07:44:51;16.80;42.00
26164;DHT22;13914;48.178;11.716;2023-05-07T07:47:17;17.00;41.60
26164;DHT22;13914;48.178;11.716;2023-05-07T07:49:43;17.20;41.50
26164;DHT22;13914;48.178;11.716;2023-05-07T07:52:08;17.30;41.50
26164;DHT22;13914;48.178;11.716;2023-05-07T07:54:34;17.50;40.90
26164;DHT22;13914;48.178;11.716;2023-05-07T07:57:00;17.60;40.90
26164;DHT22;13914;48.178;11.716;2023-05-07T07:59:26;17.70;40.80
26164;DHT22;13914;48.178;11.716;2023-05-07T08:01:52;17.90;41.00
26164;DHT22;13914;48.178;11.716;2023-05-07T08:04:21;18.00;40.90
26164;DHT22;13914;48.178;11.716;2023-05-07T08:06:47;18.20;40.70
26164;DHT22;13914;48.178;11.716;2023-05-07T08:09:12;18.30;39.80
26164;DHT22;13914;48.178;11.716;2023-05-07T08:11:38;18.50;39.10
26164;DHT22;13914;48.178;11.716;2023-05-07T08:14:04;18.60;39.40
26164;DHT22;13914;48.178;11.716;2023-05-07T08:16:30;18.70;38.60
26164;DHT22;13914;48.178;11.716;2023-05-07T08:18:56;18.80;39.00
26164;DHT22;13914;48.178;11.716;2023-05-07T08:21:22;19.00;39.10
26164;DHT22;13914;48.178;11.716;2023-05-07T08:23:48;19.10;39.00
26164;DHT22;13914;48.178;11.716;2023-05-07T08:26:13;19.20;39.20
26164;DHT22;13914;48.178;11.716;2023-05-07T08:28:39;19.40;38.20
26164;DHT22;13914;48.178;11.716;2023-05-07T08:31:05;19.50;37.40
26164;DHT22;13914;48.178;11.716;2023-05-07T08:33:30;19.70;37.90
26164;DHT22;13914;48.178;11.716;2023-05-07T08:35:56;19.90;37.40
26164;DHT22;13914;48.178;11.716;2023-05-07T08:38:22;20.00;38.00
26164;DHT22;13914;48.178;11.716;2023-05-07T08:40:47;20.10;37.20
26164;DHT22;13914;48.178;11.716;2023-05-07T08:43:13;20.30;36.80
26164;DHT22;13914;48.178;11.716;2023-05-07T08:45:42;20.40;36.80
26164;DHT22;13914;48.178;11.716;2023-05-07T08:48:09;20.50;37.90
26164;DHT22;13914;48.178;11.716;2023-05-07T08:50:42;20.70;37.20
26164;DHT22;13914;48.178;11.716;2023-05-07T08:53:07;20.80;37.50
26164;DHT22;13914;48.178;11.716;2023-05-07T08:55:33;21.00;36.90
26164;DHT22;13914;48.178;11.716;2023-05-07T08:58:00;21.20;35.90
26164;DHT22;13914;48.178;11.716;2023-05-07T09:00:26;21.30;35.40
26164;DHT22;13914;48.178;11.716;2023-05-07T09:02:52;21.40;35.30
26164;DHT22;13914;48.178;11.716;2023-05-07T09:05:18;21.50;32.70
26164;DHT22;13914;48.178;11.716;2023-05-07T09:07:45;21.50;33.30
26164;DHT22;13914;48.178;11.716;2023-05-07T09:10:11;21.60;32.80
26164;DHT22;13914;48.178;11.716;2023-05-07T09:12:37;21.70;31.50
26164;DHT22;13914;48.178;11.716;2023-05-07T09:15:04;21.70;30.00
26164;DHT22;13914;48.178;11.716;2023-05-07T09:17:31;21.80;32.30
26164;DHT22;13914;48.178;11.716;2023-05-07T09:20:01;21.90;30.90
26164;DHT22;13914;48.178;11.716;2023-05-07T09:22:31;22.00;32.00
26164;DHT22;13914;48.178;11.716;2023-05-07T09:24:57;22.10;32.10
26164;DHT22;13914;48.178;11.716;2023-05-07T09:27:23;22.20;32.90
26164;DHT22;13914;48.178;11.716;2023-05-07T09:29:48;22.40;30.50
26164;DHT22;13914;48.178;11.716;2023-05-07T09:32:15;22.30;29.30
26164;DHT22;13914;48.178;11.716;2023-05-07T09:34:41;22.30;29.40
26164;DHT22;13914;48.178;11.716;2023-05-07T09:37:07;22.40;29.10
26164;DHT22;13914;48.178;11.716;2023-05-07T09:40:06;22.50;29.20
26164;DHT22;13914;48.178;11.716;2023-05-07T09:42:24;22.50;29.20
26164;DHT22;13914;48.178;11.716;2023-05-07T09:44:52;22.60;28.20
26164;DHT22;13914;48.178;11.716;2023-05-07T09:47:19;22.70;29.40
26164;DHT22;13914;48.178;11.716;2023-05-07T09:49:46;22.80;29.70
26164;DHT22;13914;48.178;11.716;2023-05-07T09:52:13;22.70;28.80
26164;DHT22;13914;48.178;11.716;2023-05-07T09:54:39;22.90;30.00
26164;DHT22;13914;48.178;11.716;2023-05-07T09:57:08;22.90;29.80
26164;DHT22;13914;48.178;11.716;2023-05-07T09:59:35;23.00;27.50
26164;DHT22;13914;48.178;11.716;2023-05-07T10:02:03;23.00;28.60
26164;DHT22;13914;48.178;11.716;2023-05-07T10:04:29;23.00;27.60
26164;DHT22;13914;48.178;11.716;2023-05-07T10:06:56;23.10;30.30
26164;DHT22;13914;48.178;11.716;2023-05-07T10:09:22;23.20;30.00
26164;DHT22;13914;48.178;11.716;2023-05-07T10:11:48;23.30;27.90
26164;DHT22;13914;48.178;11.716;2023-05-07T10:14:15;23.30;27.10
26164;DHT22;13914;48.178;11.716;2023-05-07T10:16:42;23.40;27.00
26164;DHT22;13914;48.178;11.716;2023-05-07T10:19:08;23.30;26.10
26164;DHT22;13914;48.178;11.716;2023-05-07T10:21:37;23.40;27.30
26164;DHT22;13914;48.178;11.716;2023-05-07T10:24:11;23.40;27.60
26164;DHT22;13914;48.178;11.716;2023-05-07T10:27:04;23.40;27.10
26164;DHT22;13914;48.178;11.716;2023-05-07T10:29:35;23.40;28.00
26164;DHT22;13914;48.178;11.716;2023-05-07T10:32:20;23.40;27.60
26164;DHT22;13914;48.178;11.716;2023-05-07T10:34:50;23.50;27.50
26164;DHT22;13914;48.178;11.716;2023-05-07T10:37:19;23.50;28.60
26164;DHT22;13914;48.178;11.716;2023-05-07T10:39:45;23.50;26.70
26164;DHT22;13914;48.178;11.716;2023-05-07T10:42:11;23.50;28.00
26164;DHT22;13914;48.178;11.716;2023-05-07T10:44:37;23.70;28.00
26164;DHT22;13914;48.178;11.716;2023-05-07T10:47:07;23.60;27.00
26164;DHT22;13914;48.178;11.716;2023-05-07T10:52:17;23.60;27.20
26164;DHT22;13914;48.178;11.716;2023-05-07T10:54:44;23.70;27.80
26164;DHT22;13914;48.178;11.716;2023-05-07T10:59:56;23.60;26.10
26164;DHT22;13914;48.178;11.716;2023-05-07T11:02:21;23.60;26.10
26164;DHT22;13914;48.178;11.716;2023-05-07T11:07:57;23.60;26.10
26164;DHT22;13914;48.178;11.716;2023-05-07T11:16:17;23.50;25.50
26164;DHT22;13914;48.178;11.716;2023-05-07T11:18:48;23.60;26.90
26164;DHT22;13914;48.178;11.716;2023-05-07T11:21:34;23.60;25.30
26164;DHT22;13914;48.178;11.716;2023-05-07T11:24:01;23.60;26.10
26164;DHT22;13914;48.178;11.716;2023-05-07T11:26:28;23.60;26.10
26164;DHT22;13914;48.178;11.716;2023-05-07T11:28:56;23.60;25.40
26164;DHT22;13914;48.178;11.716;2023-05-07T11:31:26;23.60;25.60
26164;DHT22;13914;48.178;11.716;2023-05-07T11:33:54;23.60;26.10
26164;DHT22;13914;48.178;11.716;2023-05-07T11:36:21;23.70;25.90
26164;DHT22;13914;48.178;11.716;2023-05-07T11:38:47;23.60;25.50
26164;DHT22;13914;48.178;11.716;2023-05-07T11:41:13;23.70;25.20
26164;DHT22;13914;48.178;11.716;2023-05-07T11:43:53;23.70;25.50
26164;DHT22;13914;48.178;11.716;2023-05-07T11:46:22;23.70;25.50
26164;DHT22;13914;48.178;11.716;2023-05-07T11:48:48;23.70;25.50
26164;DHT22;13914;48.178;11.716;2023-05-07T11:51:14;23.80;25.00
26164;DHT22;13914;48.178;11.716;2023-05-07T11:53:44;23.70;24.90
26164;DHT22;13914;48.178;11.716;2023-05-07T11:56:11;23.80;25.10
26164;DHT22;13914;48.178;11.716;2023-05-07T11:58:38;23.80;23.90
26164;DHT22;13914;48.178;11.716;2023-05-07T12:01:06;23.70;24.20
26164;DHT22;13914;48.178;11.716;2023-05-07T12:03:32;23.70;24.00
26164;DHT22;13914;48.178;11.716;2023-05-07T12:05:59;23.70;24.50
26164;DHT22;13914;48.178;11.716;2023-05-07T12:08:25;23.70;23.80
26164;DHT22;13914;48.178;11.716;2023-05-07T12:10:51;23.70;23.90
26164;DHT22;13914;48.178;11.716;2023-05-07T12:13:20;23.80;25.00
26164;DHT22;13914;48.178;11.716;2023-05-07T12:15:50;23.80;23.80
26164;DHT22;13914;48.178;11.716;2023-05-07T12:18:19;23.80;23.60
26164;DHT22;13914;48.178;11.716;2023-05-07T12:20:46;23.70;24.30
26164;DHT22;13914;48.178;11.716;2023-05-07T12:23:12;23.70;23.60
26164;DHT22;13914;48.178;11.716;2023-05-07T12:25:38;23.70;22.10
26164;DHT22;13914;48.178;11.716;2023-05-07T12:28:05;23.70;23.60
26164;DHT22;13914;48.178;11.716;2023-05-07T12:30:36;23.70;24.00
26164;DHT22;13914;48.178;11.716;2023-05-07T12:33:03;23.80;23.60
26164;DHT22;13914;48.178;11.716;2023-05-07T12:35:29;23.90;23.30
26164;DHT22;13914;48.178;11.716;2023-05-07T12:37:58;23.90;21.20
26164;DHT22;13914;48.178;11.716;2023-05-07T12:40:34;23.80;22.60
26164;DHT22;13914;48.178;11.716;2023-05-07T12:43:02;23.80;23.40
26164;DHT22;13914;48.178;11.716;2023-05-07T12:45:27;23.80;21.90
26164;DHT22;13914;48.178;11.716;2023-05-07T12:47:53;23.80;22.20
26164;DHT22;13914;48.178;11.716;2023-05-07T12:50:19;23.70;21.30
26164;DHT22;13914;48.178;11.716;2023-05-07T12:52:49;23.70;22.40
26164;DHT22;13914;48.178;11.716;2023-05-07T12:55:15;23.70;21.60
26164;DHT22;13914;48.178;11.716;2023-05-07T12:57:48;23.70;21.30
26164;DHT22;13914;48.178;11.716;2023-05-07T13:00:15;23.70;21.30
26164;DHT22;13914;48.178;11.716;2023-05-07T13:02:42;23.70;21.70
26164;DHT22;13914;48.178;11.716;2023-05-07T13:05:11;23.70;22.00
26164;DHT22;13914;48.178;11.716;2023-05-07T13:07:37;23.70;20.60
26164;DHT22;13914;48.178;11.716;2023-05-07T13:10:03;23.70;21.60
26164;DHT22;13914;48.178;11.716;2023-05-07T13:12:29;23.70;20.30
26164;DHT22;13914;48.178;11.716;2023-05-07T13:14:56;23.70;21.20
26164;DHT22;13914;48.178;11.716;2023-05-07T13:17:22;23.70;21.60
26164;DHT22;13914;48.178;11.716;2023-05-07T13:19:47;23.60;21.70
26164;DHT22;13914;48.178;11.716;2023-05-07T13:22:13;23.70;21.00
26164;DHT22;13914;48.178;11.716;2023-05-07T13:24:39;23.70;21.10
26164;DHT22;13914;48.178;11.716;2023-05-07T13:27:06;23.70;20.50
26164;DHT22;13914;48.178;11.716;2023-05-07T13:29:32;23.60;20.80
26164;DHT22;13914;48.178;11.716;2023-05-07T13:31:58;23.60;20.80
26164;DHT22;13914;48.178;11.716;2023-05-07T13:34:23;23.60;21.40
26164;DHT22;13914;48.178;11.716;2023-05-07T13:36:49;23.60;20.90
26164;DHT22;13914;48.178;11.716;2023-05-07T13:39:15;23.50;21.20
26164;DHT22;13914;48.178;11.716;2023-05-07T13:41:41;23.60;22.80
26164;DHT22;13914;48.178;11.716;2023-05-07T13:44:07;23.60;21.80
26164;DHT22;13914;48.178;11.716;2023-05-07T13:46:32;23.60;22.30
26164;DHT22;13914;48.178;11.716;2023-05-07T13:48:58;23.60;22.10
26164;DHT22;13914;48.178;11.716;2023-05-07T13:51:27;23.60;20.50
26164;DHT22;13914;48.178;11.716;2023-05-07T13:53:52;23.60;21.80
26164;DHT22;13914;48.178;11.716;2023-05-07T13:56:19;23.60;22.50
26164;DHT22;13914;48.178;11.716;2023-05-07T13:58:46;23.60;21.60
26164;DHT22;13914;48.178;11.716;2023-05-07T14:01:12;23.60;21.30
26164;DHT22;13914;48.178;11.716;2023-05-07T14:03:38;23.50;21.70
26164;DHT22;13914;48.178;11.716;2023-05-07T14:06:05;23.50;22.40
26164;DHT22;13914;48.178;11.716;2023-05-07T14:08:30;23.50;21.10
26164;DHT22;13914;48.178;11.716;2023-05-07T14:10:56;23.50;21.50
26164;DHT22;13914;48.178;11.716;2023-05-07T14:13:22;23.50;21.20
26164;DHT22;13914;48.178;11.716;2023-05-07T14:15:48;23.50;22.60
26164;DHT22;13914;48.178;11.716;2023-05-07T14:18:14;23.50;22.80
26164;DHT22;13914;48.178;11.716;2023-05-07T14:20:41;23.50;21.70
26164;DHT22;13914;48.178;11.716;2023-05-07T14:23:08;23.60;22.60
26164;DHT22;13914;48.178;11.716;2023-05-07T14:25:34;23.50;22.80
26164;DHT22;13914;48.178;11.716;2023-05-07T14:28:00;23.50;21.90
26164;DHT22;13914;48.178;11.716;2023-05-07T14:30:26;23.50;22.00
26164;DHT22;13914;48.178;11.716;2023-05-07T14:32:51;23.50;22.40
26164;DHT22;13914;48.178;11.716;2023-05-07T14:35:17;23.50;22.60
26164;DHT22;13914;48.178;11.716;2023-05-07T14:37:43;23.50;22.10
26164;DHT22;13914;48.178;11.716;2023-05-07T14:40:09;23.40;22.40
26164;DHT22;13914;48.178;11.716;2023-05-07T14:42:35;23.40;22.30
26164;DHT22;13914;48.178;11.716;2023-05-07T14:45:01;23.30;22.70
26164;DHT22;13914;48.178;11.716;2023-05-07T14:47:27;23.30;22.00
26164;DHT22;13914;48.178;11.716;2023-05-07T14:49:53;23.30;22.60
26164;DHT22;13914;48.178;11.716;2023-05-07T14:52:19;23.20;23.20
26164;DHT22;13914;48.178;11.716;2023-05-07T14:54:45;23.20;22.30
26164;DHT22;13914;48.178;11.716;2023-05-07T14:57:13;23.20;23.20
26164;DHT22;13914;48.178;11.716;2023-05-07T14:59:41;23.20;22.30
26164;DHT22;13914;48.178;11.716;2023-05-07T15:02:07;23.10;22.70
26164;DHT22;13914;48.178;11.716;2023-05-07T15:04:34;23.10;22.50
26164;DHT22;13914;48.178;11.716;2023-05-07T15:06:59;23.00;22.70
26164;DHT22;13914;48.178;11.716;2023-05-07T15:09:25;23.00;22.80
26164;DHT22;13914;48.178;11.716;2023-05-07T15:11:51;23.00;23.30
26164;DHT22;13914;48.178;11.716;2023-05-07T15:14:17;23.00;23.20
26164;DHT22;13914;48.178;11.716;2023-05-07T15:16:43;23.00;23.30
26164;DHT22;13914;48.178;11.716;2023-05-07T15:19:09;23.00;22.80
26164;DHT22;13914;48.178;11.716;2023-05-07T15:21:35;22.90;21.60
26164;DHT22;13914;48.178;11.716;2023-05-07T15:24:01;22.80;22.60
26164;DHT22;13914;48.178;11.716;2023-05-07T15:26:27;22.80;23.00